createdAt,value
2019-04-21T00:00:53.370Z,16.20
2019-04-21T00:03:23.489Z,15.97
2019-04-21T00:06:08.848Z,12.90
2019-04-21T00:11:09.350Z,15.00
2019-04-21T00:13:32.558Z,13.17
2019-04-21T00:15:57.342Z,14.40
2019-04-21T00:18:57.493Z,13.77
2019-04-21T00:21:29.127Z,13.60
2019-04-21T00:24:20.216Z,14.00
2019-04-21T00:26:58.992Z,14.60
2019-04-21T00:29:33.901Z,15.37
2019-04-21T00:31:58.925Z,14.03
2019-04-21T00:34:15.407Z,14.53
2019-04-21T00:36:57.369Z,15.00
2019-04-21T00:39:45.031Z,13.47
2019-04-21T00:42:08.614Z,13.40
2019-04-21T00:44:29.443Z,13.37
2019-04-21T00:47:05.418Z,14.23
2019-04-21T00:49:43.148Z,16.30
2019-04-21T00:53:08.289Z,15.07
2019-04-21T00:56:01.531Z,18.63
2019-04-21T00:58:26.878Z,15.33
2019-04-21T01:00:51.081Z,14.73
2019-04-21T01:03:26.532Z,13.77
2019-04-21T01:06:10.020Z,15.63
2019-04-21T01:08:30.257Z,17.60
2019-04-21T01:10:47.361Z,17.50
2019-04-21T01:16:00.783Z,15.50
2019-04-21T01:18:31.445Z,16.53
2019-04-21T01:20:39.266Z,16.90
2019-04-21T01:23:08.613Z,16.03
2019-04-21T01:25:44.880Z,17.10
2019-04-21T01:28:25.810Z,16.27
2019-04-21T01:30:57.359Z,18.40
2019-04-21T01:33:34.912Z,15.10
2019-04-21T01:35:59.339Z,14.93
2019-04-21T01:41:06.969Z,13.53
2019-04-21T01:43:33.489Z,17.03
2019-04-21T01:46:06.667Z,15.80
2019-04-21T01:48:37.171Z,15.93
2019-04-21T01:51:07.583Z,16.90
2019-04-21T01:53:48.638Z,16.70
2019-04-21T01:56:41.864Z,17.53
2019-04-21T01:58:59.222Z,17.17
2019-04-21T02:01:39.103Z,16.23
2019-04-21T02:04:23.041Z,17.47
2019-04-21T02:06:45.623Z,18.23
2019-04-21T02:09:12.900Z,15.73
2019-04-21T02:11:50.702Z,18.67
2019-04-21T02:14:17.603Z,21.73
2019-04-21T02:16:50.963Z,22.10
2019-04-21T02:19:12.586Z,20.37
2019-04-21T02:21:43.666Z,20.10
2019-04-21T02:24:31.656Z,18.17
2019-04-21T02:26:53.863Z,19.37
2019-04-21T02:29:27.992Z,19.80
2019-04-21T02:32:11.375Z,18.90
2019-04-21T02:34:44.704Z,21.57
2019-04-21T02:37:30.876Z,24.20
2019-04-21T02:39:44.365Z,26.43
2019-04-21T02:44:46.266Z,25.00
2019-04-21T02:47:05.179Z,24.37
2019-04-21T02:52:27.411Z,21.67
2019-04-21T02:57:19.015Z,23.83
2019-04-21T03:00:06.518Z,19.63
2019-04-21T03:05:42.433Z,21.40
2019-04-21T03:08:11.208Z,20.17
2019-04-21T03:10:51.772Z,21.57
2019-04-21T03:13:13.871Z,21.73
2019-04-21T03:15:59.205Z,23.53
2019-04-21T03:23:19.187Z,18.50
2019-04-21T03:26:03.504Z,18.20
2019-04-21T03:28:14.035Z,18.70
2019-04-21T03:31:11.775Z,21.33
2019-04-21T03:36:13.093Z,24.70
2019-04-21T03:38:21.765Z,23.13
2019-04-21T03:40:52.810Z,22.60
2019-04-21T03:45:56.903Z,25.43
2019-04-21T03:48:27.229Z,19.10
2019-04-21T03:51:12.192Z,20.27
2019-04-21T03:53:24.941Z,17.70
2019-04-21T03:58:41.429Z,20.67
2019-04-21T04:01:38.694Z,16.67
2019-04-21T04:04:11.603Z,18.13
2019-04-21T04:06:48.857Z,16.90
2019-04-21T04:09:40.019Z,18.37
2019-04-21T04:14:26.666Z,22.70
2019-04-21T04:17:04.684Z,18.13
2019-04-21T04:19:26.280Z,19.27
2019-04-21T04:24:34.074Z,21.10
2019-04-21T04:27:02.538Z,20.07
2019-04-21T04:29:24.157Z,18.17
2019-04-21T04:32:16.483Z,23.33
2019-04-21T04:34:49.858Z,19.50
2019-04-21T04:37:30.355Z,19.93
2019-04-21T04:40:00.582Z,23.40
2019-04-21T04:45:15.088Z,22.77
2019-04-21T04:47:32.830Z,22.17
2019-04-21T04:50:22.537Z,23.17
2019-04-21T04:57:49.215Z,22.10
2019-04-21T05:12:46.025Z,18.60
2019-04-21T05:17:48.356Z,17.43
2019-04-21T05:20:15.807Z,17.03
2019-04-21T05:22:42.757Z,15.03
2019-04-21T05:25:08.357Z,16.30
2019-04-21T05:27:43.819Z,15.63
2019-04-21T05:33:05.386Z,18.30
2019-04-21T05:36:04.679Z,17.93
2019-04-21T05:38:57.011Z,18.13
2019-04-21T05:41:18.140Z,16.63
2019-04-21T05:43:57.513Z,16.80
2019-04-21T05:46:32.246Z,16.93
2019-04-21T05:49:02.909Z,17.70
2019-04-21T05:51:31.779Z,17.63
2019-04-21T05:54:14.992Z,17.43
2019-04-21T05:56:46.473Z,16.17
2019-04-21T05:59:07.839Z,18.07
2019-04-21T06:02:09.006Z,16.40
2019-04-21T06:04:26.504Z,18.33
2019-04-21T06:06:53.804Z,18.93
2019-04-21T06:09:19.746Z,20.87
2019-04-21T06:11:50.793Z,18.43
2019-04-21T06:14:25.153Z,18.03
2019-04-21T06:16:56.971Z,18.00
2019-04-21T06:19:22.564Z,18.27
2019-04-21T06:21:51.254Z,19.13
2019-04-21T06:24:20.512Z,18.77
2019-04-21T06:29:34.749Z,18.90
2019-04-21T06:34:40.755Z,18.83
2019-04-21T06:42:32.508Z,20.17
2019-04-21T06:45:05.967Z,22.60
2019-04-21T06:47:42.127Z,20.20
2019-04-21T06:50:01.878Z,23.47
2019-04-21T06:55:10.286Z,20.63
2019-04-21T06:57:41.840Z,21.10
2019-04-21T07:00:10.378Z,21.93
2019-04-21T07:05:15.480Z,21.17
2019-04-21T07:07:43.404Z,22.17
2019-04-21T07:10:14.310Z,24.10
2019-04-21T07:12:48.294Z,21.73
2019-04-21T07:15:18.006Z,22.90
2019-04-21T07:17:45.384Z,22.37
2019-04-21T07:20:18.827Z,20.03
2019-04-21T07:25:22.141Z,21.67
2019-04-21T07:27:56.735Z,19.97
2019-04-21T07:30:26.673Z,20.93
2019-04-21T07:33:07.305Z,20.57
2019-04-21T07:35:28.836Z,20.37
2019-04-21T07:37:58.000Z,22.70
2019-04-21T07:40:24.707Z,24.55
2019-04-21T07:42:55.678Z,28.52
2019-04-21T07:45:22.694Z,23.40
2019-04-21T07:48:11.045Z,23.73
2019-04-21T07:51:00.824Z,24.32
2019-04-21T07:53:38.652Z,23.45
2019-04-21T07:55:46.862Z,22.13
2019-04-21T07:58:40.441Z,22.30
2019-04-21T08:01:05.641Z,21.70
2019-04-21T08:03:41.082Z,22.05
2019-04-21T08:06:12.303Z,21.75
2019-04-21T08:08:34.273Z,20.62
2019-04-21T08:11:10.861Z,20.82
2019-04-21T08:13:50.276Z,23.40
2019-04-21T08:16:10.860Z,19.92
2019-04-21T08:18:47.236Z,21.57
2019-04-21T08:21:11.084Z,20.40
2019-04-21T08:23:43.465Z,22.37
2019-04-21T08:26:17.107Z,21.15
2019-04-21T08:28:52.385Z,19.67
2019-04-21T08:31:25.768Z,19.98
2019-04-21T08:33:55.704Z,24.32
2019-04-21T08:36:24.564Z,19.42
2019-04-21T08:38:54.514Z,19.35
2019-04-21T08:41:27.723Z,19.85
2019-04-21T08:43:51.403Z,19.05
2019-04-21T08:46:24.951Z,17.45
2019-04-21T08:48:55.419Z,17.05
2019-04-21T08:54:04.129Z,16.40
2019-04-21T08:57:01.182Z,14.23
2019-04-21T09:02:29.451Z,12.80
2019-04-21T09:04:56.730Z,12.93
2019-04-21T09:07:32.116Z,11.90
2019-04-21T09:09:57.757Z,11.40
2019-04-21T09:12:29.097Z,10.70
2019-04-21T09:15:03.104Z,9.35
2019-04-21T09:17:27.694Z,13.10
2019-04-21T09:20:09.708Z,11.68
2019-04-21T09:22:30.231Z,9.95
2019-04-21T09:25:05.505Z,9.85
2019-04-21T09:27:37.828Z,9.00
2019-04-21T09:29:55.889Z,9.75
2019-04-21T09:32:25.744Z,9.65
2019-04-21T09:34:53.442Z,9.08
2019-04-21T09:37:36.680Z,9.88
2019-04-21T09:39:57.381Z,9.18
2019-04-21T09:42:33.286Z,9.43
2019-04-21T09:45:00.577Z,8.28
2019-04-21T09:47:35.186Z,9.13
2019-04-21T09:50:01.812Z,8.63
2019-04-21T09:52:44.311Z,7.70
2019-04-21T09:55:11.753Z,8.10
2019-04-21T09:57:44.298Z,7.78
2019-04-21T10:00:13.156Z,7.50
2019-04-21T10:02:48.221Z,7.62
2019-04-21T10:05:10.270Z,7.62
2019-04-21T10:07:42.276Z,8.80
2019-04-21T10:10:10.992Z,7.75
2019-04-21T10:12:41.104Z,7.60
2019-04-21T10:15:10.713Z,7.45
2019-04-21T10:17:47.448Z,7.40
2019-04-21T10:20:17.188Z,6.72
2019-04-21T10:22:46.873Z,7.87
2019-04-21T10:25:16.782Z,6.87
2019-04-21T10:27:47.180Z,6.78
2019-04-21T10:30:20.291Z,6.72
2019-04-21T10:32:50.207Z,8.83
2019-04-21T10:35:21.805Z,6.85
2019-04-21T10:38:05.333Z,6.70
2019-04-21T10:40:21.869Z,7.08
2019-04-21T10:42:52.273Z,6.40
2019-04-21T10:45:22.991Z,7.08
2019-04-21T10:47:52.861Z,8.73
2019-04-21T10:50:22.680Z,7.50
2019-04-21T10:53:00.899Z,7.03
2019-04-21T10:55:44.403Z,10.13
2019-04-21T10:58:10.818Z,6.70
2019-04-21T11:00:42.061Z,6.15
2019-04-21T11:03:29.267Z,6.45
2019-04-21T11:05:59.006Z,6.50
2019-04-21T11:08:35.433Z,7.22
2019-04-21T11:10:59.698Z,5.87
2019-04-21T11:13:30.585Z,6.42
2019-04-21T11:16:01.346Z,6.55
2019-04-21T11:18:31.650Z,6.83
2019-04-21T11:21:02.848Z,6.70
2019-04-21T11:23:33.197Z,7.12
2019-04-21T11:26:06.479Z,6.70
2019-04-21T11:28:36.820Z,6.37
2019-04-21T11:31:07.036Z,7.03
2019-04-21T11:33:37.611Z,7.25
2019-04-21T11:36:07.152Z,6.25
2019-04-21T11:38:58.089Z,6.72
2019-04-21T11:41:13.879Z,6.95
2019-04-21T11:43:46.497Z,7.58
2019-04-21T11:46:16.430Z,6.83
2019-04-21T11:48:46.154Z,7.60
2019-04-21T11:51:15.682Z,6.67
2019-04-21T11:53:46.495Z,6.80
2019-04-21T11:56:16.830Z,6.10
2019-04-21T11:58:47.715Z,6.90
2019-04-21T12:01:17.941Z,6.00
2019-04-21T12:03:47.600Z,6.63
2019-04-21T12:06:17.469Z,6.57
2019-04-21T12:08:49.919Z,7.10
2019-04-21T12:11:18.147Z,6.57
2019-04-21T12:13:48.037Z,5.90
2019-04-21T12:16:17.467Z,6.83
2019-04-21T12:18:47.157Z,6.63
2019-04-21T12:21:16.636Z,6.53
2019-04-21T12:23:46.012Z,7.77
2019-04-21T12:26:15.969Z,7.83
2019-04-21T12:28:45.959Z,6.23
2019-04-21T12:31:33.742Z,6.00
2019-04-21T12:34:06.106Z,6.10
2019-04-21T12:36:35.835Z,6.43
2019-04-21T12:39:08.775Z,6.50
2019-04-21T12:41:38.532Z,7.63
2019-04-21T12:44:08.947Z,12.70
2019-04-21T12:46:41.308Z,8.40
2019-04-21T12:49:11.795Z,6.77
2019-04-21T12:51:41.868Z,6.33
2019-04-21T12:54:11.996Z,7.10
2019-04-21T12:56:41.518Z,6.33
2019-04-21T12:59:12.062Z,6.33
2019-04-21T13:01:41.552Z,6.00
2019-04-21T13:04:11.035Z,6.20
2019-04-21T13:06:41.527Z,6.40
2019-04-21T13:09:14.314Z,6.27
2019-04-21T13:11:43.430Z,6.50
2019-04-21T13:14:13.664Z,6.33
2019-04-21T13:16:43.490Z,6.70
2019-04-21T13:19:13.358Z,6.70
2019-04-21T13:21:42.791Z,6.73
2019-04-21T13:24:12.197Z,6.10
2019-04-21T13:26:47.250Z,6.33
2019-04-21T13:29:12.746Z,6.77
2019-04-21T13:31:42.554Z,6.27
2019-04-21T13:34:12.094Z,6.77
2019-04-21T13:36:41.536Z,6.20
2019-04-21T13:42:11.090Z,5.90
2019-04-21T13:44:33.068Z,6.30
2019-04-21T13:47:04.753Z,6.20
2019-04-21T13:49:35.073Z,6.00
2019-04-21T13:52:04.857Z,6.20
2019-04-21T13:54:35.582Z,6.13
2019-04-21T13:57:05.201Z,6.30
2019-04-21T13:59:38.449Z,6.03
2019-04-21T14:02:08.928Z,9.20
2019-04-21T14:04:38.376Z,6.00
2019-04-21T14:07:10.095Z,6.50
2019-04-21T14:09:50.051Z,5.73
2019-04-21T14:12:11.728Z,6.47
2019-04-21T14:14:42.028Z,7.57
2019-04-21T14:17:12.775Z,6.33
2019-04-21T14:19:43.469Z,6.30
2019-04-21T14:22:15.903Z,8.73
2019-04-21T14:24:45.818Z,7.53
2019-04-21T14:27:16.327Z,10.70
2019-04-21T14:29:45.978Z,6.40
2019-04-21T14:32:16.097Z,6.00
2019-04-21T14:34:48.500Z,7.30
2019-04-21T14:37:17.025Z,7.13
2019-04-21T14:39:52.748Z,7.40
2019-04-21T14:42:18.095Z,6.60
2019-04-21T14:44:49.035Z,5.83
2019-04-21T14:47:31.507Z,6.57
2019-04-21T14:50:24.237Z,6.53
2019-04-21T14:53:25.703Z,5.87
2019-04-21T14:55:55.378Z,6.63
2019-04-21T14:58:25.441Z,7.23
2019-04-21T15:00:58.272Z,6.83
2019-04-21T15:03:27.901Z,5.83
2019-04-21T15:05:57.750Z,8.70
2019-04-21T15:08:27.296Z,6.23
2019-04-21T15:10:56.928Z,7.87
2019-04-21T15:13:27.873Z,5.77
2019-04-21T15:15:57.603Z,6.23
2019-04-21T15:18:30.609Z,8.10
2019-04-21T15:21:01.383Z,6.30
2019-04-21T15:23:32.449Z,5.80
2019-04-21T15:26:02.238Z,6.67
2019-04-21T15:28:33.566Z,8.70
2019-04-21T15:31:03.031Z,7.70
2019-04-21T15:33:32.366Z,5.53
2019-04-21T15:36:02.932Z,6.37
2019-04-21T15:38:33.904Z,7.27
2019-04-21T15:41:08.327Z,6.17
2019-04-21T15:43:38.534Z,5.77
2019-04-21T15:46:08.823Z,6.27
2019-04-21T15:48:41.440Z,5.97
2019-04-21T15:51:11.071Z,5.80
2019-04-21T15:53:41.811Z,5.90
2019-04-21T15:56:20.561Z,6.17
2019-04-21T15:59:04.570Z,5.77
2019-04-21T16:01:38.872Z,5.33
2019-04-21T16:04:08.539Z,9.33
2019-04-21T16:06:39.306Z,6.87
2019-04-21T16:09:15.726Z,5.77
2019-04-21T16:11:42.046Z,6.30
2019-04-21T16:14:11.558Z,8.57
2019-04-21T16:16:41.234Z,6.27
2019-04-21T16:19:12.141Z,6.33
2019-04-21T16:21:44.416Z,6.50
2019-04-21T16:24:14.154Z,5.67
2019-04-21T16:26:44.599Z,7.23
2019-04-21T16:29:15.263Z,6.70
2019-04-21T16:31:44.833Z,7.73
2019-04-21T16:34:15.707Z,6.63
2019-04-21T16:36:45.659Z,7.50
2019-04-21T16:39:15.591Z,25.40
2019-04-21T16:41:46.515Z,18.73
2019-04-21T16:44:16.850Z,16.70
2019-04-21T16:46:47.540Z,13.00
2019-04-21T16:49:17.911Z,9.17
2019-04-21T16:51:50.025Z,8.83
2019-04-21T16:54:28.103Z,9.93
2019-04-21T16:57:05.946Z,12.73
2019-04-21T16:59:39.902Z,12.43
2019-04-21T17:02:10.351Z,10.97
2019-04-21T17:04:40.370Z,10.97
2019-04-21T17:07:11.472Z,11.33
2019-04-21T17:09:41.072Z,11.87
2019-04-21T17:12:14.213Z,9.80
2019-04-21T17:14:57.138Z,12.37
2019-04-21T17:17:32.260Z,11.57
2019-04-21T17:19:47.626Z,13.50
2019-04-21T17:22:15.723Z,11.40
2019-04-21T17:24:46.468Z,16.27
2019-04-21T17:27:17.336Z,16.47
2019-04-21T17:29:48.514Z,16.87
2019-04-21T17:32:18.409Z,24.30
2019-04-21T17:34:47.969Z,25.50
2019-04-21T17:37:20.103Z,23.13
2019-04-21T17:39:49.197Z,29.90
2019-04-21T17:42:29.735Z,34.00
2019-04-21T17:44:50.956Z,37.07
2019-04-21T17:47:34.245Z,41.97
2019-04-21T17:50:23.288Z,35.87
2019-04-21T17:53:00.903Z,28.13
2019-04-21T17:55:31.329Z,25.23
2019-04-21T17:58:16.267Z,33.90
2019-04-21T18:03:32.871Z,38.27
2019-04-21T18:05:52.762Z,35.10
2019-04-21T18:08:32.599Z,40.33
2019-04-21T18:10:53.472Z,41.20
2019-04-21T18:13:17.588Z,44.53
2019-04-21T18:16:00.012Z,35.13
2019-04-21T18:18:14.865Z,33.50
2019-04-21T18:20:47.955Z,35.80
2019-04-21T18:23:52.096Z,44.37
2019-04-21T18:26:24.691Z,46.23
2019-04-21T18:28:44.701Z,49.67
2019-04-21T18:31:14.899Z,49.77
2019-04-21T18:34:02.315Z,48.13
2019-04-21T18:36:35.882Z,34.03
2019-04-21T18:39:43.352Z,28.00
2019-04-21T18:42:24.323Z,33.10
2019-04-21T18:45:36.011Z,44.17
2019-04-21T18:47:57.102Z,55.50
2019-04-21T18:50:41.612Z,40.97
2019-04-21T18:53:16.552Z,47.73
2019-04-21T18:55:45.307Z,25.50
2019-04-21T18:58:13.422Z,33.40
2019-04-21T19:00:45.341Z,25.00
2019-04-21T19:03:15.461Z,30.27
2019-04-21T19:05:47.835Z,26.73
2019-04-21T19:08:31.248Z,25.47
2019-04-21T19:11:10.365Z,30.07
2019-04-21T19:14:04.212Z,22.47
2019-04-21T19:18:50.649Z,21.73
2019-04-21T19:21:10.137Z,20.73
2019-04-21T19:23:57.915Z,23.40
2019-04-21T19:28:52.607Z,15.80
2019-04-21T19:31:28.191Z,14.20
2019-04-21T19:33:43.971Z,16.30
2019-04-21T19:36:03.468Z,19.23
2019-04-21T19:38:45.698Z,15.37
2019-04-21T19:41:20.997Z,13.23
2019-04-21T19:43:52.173Z,14.33
2019-04-21T19:46:23.623Z,14.63
2019-04-21T19:49:07.120Z,16.27
2019-04-21T19:51:21.936Z,14.87
2019-04-21T19:53:52.805Z,12.50
2019-04-21T19:56:12.086Z,11.03
2019-04-21T19:58:45.184Z,13.17
2019-04-21T20:01:14.105Z,13.47
2019-04-21T20:03:49.831Z,10.40
2019-04-21T20:06:28.820Z,13.40
2019-04-21T20:09:04.259Z,12.83
2019-04-21T20:11:34.649Z,12.57
2019-04-21T20:14:32.863Z,13.00
2019-04-21T20:16:41.723Z,14.03
2019-04-21T20:18:57.365Z,16.40
2019-04-21T20:21:22.817Z,17.43
2019-04-21T20:23:57.442Z,18.87
2019-04-21T20:26:30.397Z,19.80
2019-04-21T20:29:05.541Z,19.80
2019-04-21T20:31:43.079Z,27.70
2019-04-21T20:34:20.636Z,29.83
2019-04-21T20:36:51.415Z,22.97
2019-04-21T20:39:07.311Z,25.93
2019-04-21T20:41:41.984Z,26.47
2019-04-21T20:44:20.837Z,25.97
2019-04-21T20:46:52.644Z,27.17
2019-04-21T20:49:18.567Z,25.77
2019-04-21T20:51:53.916Z,18.87
2019-04-21T20:54:24.320Z,17.90
2019-04-21T20:56:59.782Z,16.40
2019-04-21T20:59:23.929Z,16.77
2019-04-21T21:01:56.697Z,16.87
2019-04-21T21:04:22.923Z,17.50
2019-04-21T21:06:59.687Z,14.93
2019-04-21T21:09:28.297Z,21.60
2019-04-21T21:12:19.487Z,15.60
2019-04-21T21:14:31.950Z,14.03
2019-04-21T21:17:03.022Z,14.80
2019-04-21T21:19:34.785Z,14.30
2019-04-21T21:22:01.687Z,13.40
2019-04-21T21:24:41.610Z,13.03
2019-04-21T21:27:09.118Z,11.80
2019-04-21T21:29:41.312Z,15.20
2019-04-21T21:32:16.221Z,15.00
2019-04-21T21:34:47.240Z,17.47
2019-04-21T21:37:21.012Z,20.60
2019-04-21T21:39:52.104Z,23.47
2019-04-21T21:42:01.858Z,17.20
2019-04-21T21:44:30.683Z,18.33
2019-04-21T21:47:14.223Z,17.73
2019-04-21T21:49:45.764Z,12.87
2019-04-21T21:52:11.517Z,10.83
2019-04-21T21:54:33.932Z,11.23
2019-04-21T21:57:04.764Z,10.83
2019-04-21T21:59:38.093Z,12.67
2019-04-21T22:02:09.423Z,11.90
2019-04-21T22:04:38.914Z,11.50
2019-04-21T22:07:13.529Z,8.00
2019-04-21T22:09:39.960Z,9.53
2019-04-21T22:12:10.979Z,9.30
2019-04-21T22:14:44.835Z,10.63
2019-04-21T22:17:28.999Z,10.67
2019-04-21T22:20:06.550Z,12.07
2019-04-21T22:22:29.869Z,14.50
2019-04-21T22:24:56.300Z,14.47
2019-04-21T22:27:17.020Z,14.90
2019-04-21T22:29:52.711Z,15.63
2019-04-21T22:32:23.373Z,11.77
2019-04-21T22:34:54.686Z,16.40
2019-04-21T22:37:36.809Z,10.57
2019-04-21T22:40:04.451Z,12.93
2019-04-21T22:42:27.647Z,8.53
2019-04-21T22:44:54.525Z,13.03
2019-04-21T22:47:29.886Z,10.27
2019-04-21T22:49:55.035Z,8.90
2019-04-21T22:52:27.913Z,8.27
2019-04-21T22:54:55.975Z,8.50
2019-04-21T22:57:28.719Z,8.23
2019-04-21T23:00:01.103Z,8.53
2019-04-21T23:02:30.452Z,7.87
2019-04-21T23:05:00.515Z,9.30
2019-04-21T23:07:33.621Z,9.07
2019-04-21T23:10:05.380Z,11.77
2019-04-21T23:12:38.731Z,11.03
2019-04-21T23:15:13.409Z,13.07
2019-04-21T23:18:00.834Z,12.60
2019-04-21T23:20:32.512Z,10.57
2019-04-21T23:23:07.373Z,12.23
2019-04-21T23:25:26.617Z,11.73
2019-04-21T23:27:56.204Z,21.43
2019-04-21T23:30:38.861Z,13.87
2019-04-21T23:32:54.742Z,14.93
2019-04-21T23:35:26.490Z,11.43
2019-04-21T23:37:57.547Z,12.37
2019-04-21T23:40:23.499Z,12.70
2019-04-21T23:42:53.043Z,11.70
2019-04-21T23:45:27.449Z,10.53
2019-04-21T23:48:08.053Z,25.33
2019-04-21T23:50:34.192Z,14.87
2019-04-21T23:52:55.791Z,16.00
2019-04-21T23:55:25.636Z,13.60
2019-04-21T23:58:04.983Z,14.87
